Time;durP1;ratioP1;P1;durP2;ratioP2;P2;SDS_P1;SDS_P2;PMS_P1;PMS_P2;Temp;Humidity;BMP_temperature;BMP_pressure;BME280_temperature;BME280_humidity;BME280_pressure;Samples;Min_cycle;Max_cycle;Signal;HPM_P1;HPM_P2
2023/12/28 00:01:02;;;;;;;;;7.00;5.33;;;;;;;;5056546;28;9044;-80
2023/12/28 00:03:30;;;;;;;;;5.00;5.00;;;;;;;;5065177;28;9077;-80
2023/12/28 00:05:57;;;;;;;;;3.67;3.67;;;;;;;;5070280;28;9073;-81
2023/12/28 00:08:24;;;;;;;;;3.33;3.33;;;;;;;;5069724;28;9189;-80
2023/12/28 00:10:52;;;;;;;;;5.00;5.00;;;;;;;;5060864;28;9016;-80
2023/12/28 00:13:19;;;;;;;;;5.00;5.00;;;;;;;;5065669;28;9231;-79
2023/12/28 00:15:48;;;;;;;;;5.00;5.00;;;;;;;;5069618;28;9406;-79
2023/12/28 00:18:17;;;;;;;;;4.67;4.67;;;;;;;;5069489;28;9236;-79
2023/12/28 00:20:44;;;;;;;;;4.67;4.67;;;;;;;;5069980;28;9206;-79
2023/12/28 00:23:11;;;;;;;;;3.67;3.67;;;;;;;;5065683;28;9193;-78
2023/12/28 00:25:39;;;;;;;;;6.00;5.00;;;;;;;;5068371;28;9185;-80
2023/12/28 00:28:06;;;;;;;;;5.33;5.33;;;;;;;;5068427;28;9104;-80
2023/12/28 00:30:33;;;;;;;;;5.00;5.00;;;;;;;;5070491;28;9110;-80
2023/12/28 00:33:03;;;;;;;;;4.67;4.67;;;;;;;;5071254;28;9172;-79
2023/12/28 00:35:32;;;;;;;;;5.33;4.33;;;;;;;;5075018;28;9038;-80
2023/12/28 00:37:59;;;;;;;;;8.67;5.67;;;;;;;;5067041;28;9185;-80
2023/12/28 00:40:26;;;;;;;;;5.00;5.00;;;;;;;;5062333;28;9097;-80
2023/12/28 00:42:53;;;;;;;;;6.33;5.00;;;;;;;;5068303;28;9205;-78
2023/12/28 00:45:21;;;;;;;;;7.33;6.00;;;;;;;;5069068;28;9372;-79
2023/12/28 00:47:48;;;;;;;;;6.33;4.33;;;;;;;;5069009;28;9402;-80
2023/12/28 00:50:15;;;;;;;;;4.00;4.00;;;;;;;;5066202;28;9096;-80
2023/12/28 00:52:44;;;;;;;;;5.33;4.67;;;;;;;;5069926;28;9261;-79
2023/12/28 00:55:13;;;;;;;;;4.00;4.00;;;;;;;;5070451;28;10216;-80
2023/12/28 00:57:41;;;;;;;;;4.67;3.33;;;;;;;;5072380;28;9239;-81
2023/12/28 01:00:09;;;;;;;;;5.00;5.00;;;;;;;;5069135;28;9379;-80
2023/12/28 01:02:38;;;;;;;;;3.00;3.00;;;;;;;;5067672;28;9316;-81
2023/12/28 01:05:06;;;;;;;;;7.00;5.67;;;;;;;;5060797;28;9025;-80
2023/12/28 01:07:36;;;;;;;;;4.00;4.00;;;;;;;;5068394;28;9266;-78
2023/12/28 01:10:06;;;;;;;;;3.67;3.67;;;;;;;;5062896;28;9228;-80
2023/12/28 01:12:34;;;;;;;;;7.67;5.33;;;;;;;;5068781;28;10134;-80
2023/12/28 01:15:01;;;;;;;;;5.00;5.00;;;;;;;;5066332;28;9260;-79
2023/12/28 01:17:28;;;;;;;;;2.00;2.00;;;;;;;;5059972;28;9462;-80
2023/12/28 01:19:56;;;;;;;;;4.00;4.00;;;;;;;;5060414;28;9277;-80
2023/12/28 01:22:23;;;;;;;;;4.67;4.67;;;;;;;;5071101;28;9288;-81
2023/12/28 01:24:50;;;;;;;;;3.00;3.00;;;;;;;;5073185;28;9009;-80
2023/12/28 01:27:20;;;;;;;;;5.00;5.00;;;;;;;;5066682;28;9217;-79
2023/12/28 01:29:47;;;;;;;;;4.00;4.00;;;;;;;;5092452;28;9263;-80
2023/12/28 01:32:14;;;;;;;;;3.33;3.33;;;;;;;;5066405;28;9146;-80
2023/12/28 01:34:42;;;;;;;;;5.33;5.00;;;;;;;;5060205;28;9191;-80
2023/12/28 01:37:09;;;;;;;;;3.33;3.33;;;;;;;;5062014;28;9254;-80
2023/12/28 01:39:36;;;;;;;;;4.67;4.00;;;;;;;;5067178;28;9282;-81
2023/12/28 01:42:04;;;;;;;;;5.33;4.00;;;;;;;;5068284;28;9229;-80
2023/12/28 01:44:33;;;;;;;;;6.00;6.00;;;;;;;;5067136;28;9191;-80
2023/12/28 01:47:01;;;;;;;;;4.67;4.67;;;;;;;;5066627;28;9352;-80
2023/12/28 01:49:28;;;;;;;;;4.00;3.00;;;;;;;;5068167;28;9263;-80
2023/12/28 01:51:56;;;;;;;;;4.67;4.67;;;;;;;;5058166;28;9377;-79
2023/12/28 01:54:24;;;;;;;;;3.33;2.67;;;;;;;;5063819;28;9325;-79
2023/12/28 01:56:51;;;;;;;;;4.00;4.00;;;;;;;;5068369;28;9247;-80
2023/12/28 01:59:19;;;;;;;;;4.00;4.00;;;;;;;;5066729;28;9173;-81
2023/12/28 02:01:49;;;;;;;;;6.33;5.00;;;;;;;;5067838;28;9126;-81
2023/12/28 02:04:16;;;;;;;;;4.00;4.00;;;;;;;;5068087;28;9401;-80
2023/12/28 02:06:44;;;;;;;;;3.00;3.00;;;;;;;;5067157;28;9195;-80
2023/12/28 02:09:11;;;;;;;;;3.33;3.00;;;;;;;;5067806;28;9183;-80
2023/12/28 02:11:38;;;;;;;;;4.67;4.67;;;;;;;;5067423;28;9331;-79
2023/12/28 02:14:05;;;;;;;;;5.00;5.00;;;;;;;;5068039;28;9264;-80
2023/12/28 02:16:37;;;;;;;;;4.00;4.00;;;;;;;;5068355;28;9372;-80
2023/12/28 02:19:18;;;;;;;;;3.33;1.67;;;;;;;;5068534;28;9254;-81
2023/12/28 02:21:46;;;;;;;;;5.00;3.00;;;;;;;;5069874;28;9250;-80
2023/12/28 02:24:16;;;;;;;;;3.67;3.67;;;;;;;;5072884;28;9083;-80
2023/12/28 02:26:47;;;;;;;;;2.33;2.33;;;;;;;;5061956;28;9094;-79
2023/12/28 02:29:15;;;;;;;;;4.33;4.33;;;;;;;;5063851;28;9027;-81
2023/12/28 02:31:48;;;;;;;;;5.33;4.00;;;;;;;;5068433;28;9035;-81
2023/12/28 02:34:22;;;;;;;;;4.00;4.00;;;;;;;;5074024;28;9213;-80
2023/12/28 02:36:50;;;;;;;;;6.33;4.33;;;;;;;;5064188;28;9189;-80
2023/12/28 02:39:18;;;;;;;;;3.67;3.67;;;;;;;;5072789;28;9855;-81
2023/12/28 02:41:59;;;;;;;;;5.00;4.00;;;;;;;;5071227;28;10038;-81
2023/12/28 02:44:27;;;;;;;;;6.67;3.67;;;;;;;;5068490;28;9189;-80
2023/12/28 02:46:54;;;;;;;;;3.67;3.67;;;;;;;;5068332;28;9189;-79
2023/12/28 02:49:21;;;;;;;;;4.67;4.00;;;;;;;;5068883;28;9941;-81
2023/12/28 02:51:49;;;;;;;;;5.00;3.67;;;;;;;;5071914;28;9417;-81
2023/12/28 02:54:16;;;;;;;;;6.00;4.00;;;;;;;;5064242;28;9208;-80
2023/12/28 02:56:43;;;;;;;;;2.67;2.67;;;;;;;;5068678;28;9314;-80
2023/12/28 02:59:12;;;;;;;;;4.00;4.00;;;;;;;;5058504;28;9182;-80
2023/12/28 03:01:39;;;;;;;;;3.00;1.67;;;;;;;;5060802;28;9134;-80
2023/12/28 03:04:09;;;;;;;;;4.00;4.00;;;;;;;;5066231;28;9235;-79
2023/12/28 03:06:38;;;;;;;;;3.33;3.33;;;;;;;;5071076;28;9194;-79
2023/12/28 03:09:06;;;;;;;;;4.00;4.00;;;;;;;;5072017;28;9318;-79
2023/12/28 03:11:33;;;;;;;;;4.00;4.00;;;;;;;;5073106;28;9100;-80
2023/12/28 03:14:01;;;;;;;;;3.33;3.33;;;;;;;;5066358;28;9087;-80
2023/12/28 03:16:30;;;;;;;;;7.00;3.67;;;;;;;;5060343;28;9122;-81
2023/12/28 03:18:57;;;;;;;;;6.67;4.00;;;;;;;;5070277;28;9251;-81
2023/12/28 03:21:24;;;;;;;;;4.00;4.00;;;;;;;;5064995;28;9901;-81
2023/12/28 03:23:52;;;;;;;;;6.67;4.67;;;;;;;;5059275;28;9181;-80
2023/12/28 03:26:19;;;;;;;;;5.00;4.67;;;;;;;;5062501;28;9174;-80
2023/12/28 03:28:46;;;;;;;;;4.00;4.00;;;;;;;;5069902;28;9185;-81
2023/12/28 03:31:14;;;;;;;;;4.00;4.00;;;;;;;;5069938;28;9220;-80
2023/12/28 03:33:42;;;;;;;;;3.67;3.67;;;;;;;;5069852;28;9105;-80
2023/12/28 03:36:18;;;;;;;;;5.00;5.00;;;;;;;;5065016;28;9196;-80
2023/12/28 03:38:46;;;;;;;;;3.33;3.33;;;;;;;;5068783;28;9167;-80
2023/12/28 03:41:18;;;;;;;;;0.33;0.33;;;;;;;;5059868;28;9258;-80
2023/12/28 03:43:45;;;;;;;;;3.67;3.67;;;;;;;;5065611;28;9186;-80
2023/12/28 03:46:13;;;;;;;;;5.00;4.00;;;;;;;;5069962;28;9272;-80
2023/12/28 03:48:42;;;;;;;;;3.00;2.00;;;;;;;;5065289;28;9087;-79
2023/12/28 03:51:09;;;;;;;;;4.00;4.00;;;;;;;;5069806;28;9038;-79
2023/12/28 03:53:39;;;;;;;;;4.67;4.33;;;;;;;;5070084;28;9269;-79
2023/12/28 03:56:07;;;;;;;;;4.00;4.00;;;;;;;;5071328;28;9255;-80
2023/12/28 03:58:34;;;;;;;;;4.00;4.00;;;;;;;;5074577;28;9286;-78
2023/12/28 04:01:01;;;;;;;;;2.00;2.00;;;;;;;;5092799;28;9138;-78
2023/12/28 04:03:28;;;;;;;;;8.00;4.33;;;;;;;;5078293;28;9031;-80
2023/12/28 04:05:57;;;;;;;;;4.33;4.00;;;;;;;;5070668;28;9080;-78
2023/12/28 04:08:24;;;;;;;;;4.00;4.00;;;;;;;;5070876;28;9139;-81
2023/12/28 04:10:51;;;;;;;;;4.00;3.00;;;;;;;;5071395;28;9266;-81
2023/12/28 04:13:20;;;;;;;;;4.33;4.33;;;;;;;;5062930;28;9193;-81
2023/12/28 04:15:47;;;;;;;;;1.33;0.67;;;;;;;;5068113;28;9124;-80
2023/12/28 04:18:17;;;;;;;;;7.33;4.00;;;;;;;;5070879;28;9307;-80
2023/12/28 04:20:44;;;;;;;;;3.67;3.00;;;;;;;;5074459;28;9178;-80
2023/12/28 04:23:13;;;;;;;;;4.00;4.00;;;;;;;;5076899;28;9288;-80
2023/12/28 04:25:41;;;;;;;;;3.00;3.00;;;;;;;;5069835;28;9100;-80
2023/12/28 04:28:08;;;;;;;;;5.33;2.00;;;;;;;;5070182;28;9107;-81
2023/12/28 04:30:36;;;;;;;;;6.67;3.00;;;;;;;;5073523;28;9068;-80
2023/12/28 04:33:04;;;;;;;;;3.33;3.33;;;;;;;;5068036;28;9078;-81
2023/12/28 04:35:31;;;;;;;;;3.33;3.33;;;;;;;;5072115;28;9091;-82
2023/12/28 04:37:59;;;;;;;;;3.67;3.00;;;;;;;;5071296;28;9239;-81
2023/12/28 04:40:29;;;;;;;;;4.67;3.33;;;;;;;;5063276;28;9277;-80
2023/12/28 04:42:57;;;;;;;;;3.33;2.67;;;;;;;;5064638;28;10339;-81
2023/12/28 04:45:24;;;;;;;;;5.67;3.00;;;;;;;;5068985;28;9174;-80
2023/12/28 04:47:51;;;;;;;;;3.00;3.00;;;;;;;;5060360;28;9444;-81
2023/12/28 04:50:18;;;;;;;;;4.33;4.00;;;;;;;;5067364;28;9327;-81
2023/12/28 04:52:45;;;;;;;;;1.67;1.67;;;;;;;;5058565;28;9458;-79
2023/12/28 04:55:13;;;;;;;;;4.00;4.00;;;;;;;;5063864;28;9273;-79
2023/12/28 04:57:42;;;;;;;;;3.33;3.33;;;;;;;;5069494;28;9405;-81
2023/12/28 05:00:11;;;;;;;;;3.33;2.00;;;;;;;;5070442;28;10171;-80
2023/12/28 05:02:39;;;;;;;;;3.00;3.00;;;;;;;;5069953;28;9247;-79
2023/12/28 05:05:08;;;;;;;;;2.00;2.00;;;;;;;;5069602;28;10161;-80
2023/12/28 05:07:39;;;;;;;;;2.33;2.33;;;;;;;;5076885;28;9438;-79
2023/12/28 05:10:09;;;;;;;;;5.00;3.00;;;;;;;;5068486;28;9169;-78
2023/12/28 05:12:36;;;;;;;;;2.00;2.00;;;;;;;;5067988;28;9327;-80
2023/12/28 05:15:06;;;;;;;;;3.00;1.67;;;;;;;;5067988;28;9300;-80
2023/12/28 05:17:33;;;;;;;;;2.67;2.00;;;;;;;;5066792;28;9327;-80
2023/12/28 05:20:00;;;;;;;;;4.00;4.00;;;;;;;;5063556;28;9303;-80
2023/12/28 05:22:28;;;;;;;;;2.00;2.00;;;;;;;;5063652;28;9469;-79
2023/12/28 05:24:55;;;;;;;;;3.67;2.33;;;;;;;;5070144;28;9385;-79
2023/12/28 05:27:22;;;;;;;;;3.00;3.00;;;;;;;;5056778;28;9393;-80
2023/12/28 05:29:49;;;;;;;;;4.00;3.00;;;;;;;;5067657;28;9423;-79
2023/12/28 05:32:19;;;;;;;;;3.67;3.00;;;;;;;;5056155;28;9211;-80
2023/12/28 05:34:46;;;;;;;;;7.67;3.00;;;;;;;;5066476;28;9400;-80
2023/12/28 05:37:13;;;;;;;;;4.00;3.67;;;;;;;;5068375;28;9396;-80
2023/12/28 05:39:40;;;;;;;;;5.25;3.00;;;;;;;;5067828;28;9364;-80
2023/12/28 05:42:08;;;;;;;;;3.25;3.25;;;;;;;;5067730;28;9526;-80
2023/12/28 05:44:35;;;;;;;;;3.75;3.50;;;;;;;;5066044;28;9557;-80
2023/12/28 05:47:03;;;;;;;;;5.25;5.00;;;;;;;;5066054;28;9492;-80
2023/12/28 05:49:32;;;;;;;;;3.00;3.00;;;;;;;;5067768;28;9558;-81
2023/12/28 05:51:59;;;;;;;;;3.00;3.00;;;;;;;;5068469;28;10325;-80
2023/12/28 05:54:26;;;;;;;;;4.00;3.75;;;;;;;;5067720;28;9635;-80
2023/12/28 05:56:54;;;;;;;;;1.75;1.75;;;;;;;;5069125;28;9742;-80
2023/12/28 05:59:22;;;;;;;;;5.75;4.75;;;;;;;;5071370;28;9558;-80
2023/12/28 06:01:49;;;;;;;;;3.25;3.00;;;;;;;;5074724;28;9746;-79
2023/12/28 06:04:16;;;;;;;;;4.50;4.00;;;;;;;;5076937;28;9561;-79
2023/12/28 06:06:46;;;;;;;;;4.25;4.25;;;;;;;;5067834;28;9640;-80
2023/12/28 06:09:13;;;;;;;;;5.50;4.25;;;;;;;;5077303;28;9714;-80
2023/12/28 06:11:41;;;;;;;;;3.00;3.00;;;;;;;;5076172;28;9703;-79
2023/12/28 06:14:14;;;;;;;;;4.75;3.25;;;;;;;;5077611;28;9759;-71
2023/12/28 06:16:41;;;;;;;;;5.50;3.75;;;;;;;;5074595;28;9673;-75
2023/12/28 06:19:09;;;;;;;;;4.00;4.00;;;;;;;;5068552;28;10575;-75
2023/12/28 06:21:37;;;;;;;;;4.25;4.25;;;;;;;;5074505;28;9598;-77
2023/12/28 06:24:06;;;;;;;;;3.25;3.25;;;;;;;;5085976;28;9760;-73
2023/12/28 06:26:33;;;;;;;;;3.25;3.25;;;;;;;;5071216;28;9711;-77
2023/12/28 06:29:00;;;;;;;;;4.00;4.00;;;;;;;;5072852;28;9805;-77
2023/12/28 06:31:27;;;;;;;;;5.00;3.25;;;;;;;;5070285;28;9707;-77
2023/12/28 06:33:54;;;;;;;;;2.75;2.75;;;;;;;;5070714;28;9769;-76
2023/12/28 06:36:22;;;;;;;;;4.25;4.25;;;;;;;;5070103;28;9614;-78
2023/12/28 06:38:50;;;;;;;;;4.25;4.25;;;;;;;;5059314;28;9888;-77
2023/12/28 06:41:19;;;;;;;;;4.25;4.25;;;;;;;;5070397;28;9904;-78
2023/12/28 06:43:46;;;;;;;;;3.00;3.00;;;;;;;;5071111;28;10451;-76
2023/12/28 06:46:13;;;;;;;;;4.25;2.50;;;;;;;;5072102;28;9791;-77
2023/12/28 06:48:41;;;;;;;;;3.25;3.25;;;;;;;;5072933;28;9804;-75
2023/12/28 06:51:08;;;;;;;;;1.00;1.00;;;;;;;;5071199;28;9624;-78
2023/12/28 06:53:35;;;;;;;;;2.75;2.75;;;;;;;;5071089;28;9942;-77
2023/12/28 06:56:02;;;;;;;;;4.50;2.00;;;;;;;;5068321;28;9772;-78
2023/12/28 06:58:31;;;;;;;;;5.00;3.00;;;;;;;;5068737;28;9644;-77
2023/12/28 07:00:58;;;;;;;;;3.50;3.50;;;;;;;;5068238;28;9692;-77
2023/12/28 07:03:30;;;;;;;;;4.00;3.75;;;;;;;;5069993;28;9691;-78
2023/12/28 07:05:57;;;;;;;;;3.00;3.00;;;;;;;;5070047;28;9688;-78
2023/12/28 07:08:24;;;;;;;;;4.00;4.00;;;;;;;;5069345;28;9706;-78
2023/12/28 07:10:54;;;;;;;;;5.75;4.50;;;;;;;;5069363;28;9614;-77
2023/12/28 07:13:21;;;;;;;;;7.50;4.00;;;;;;;;5069138;28;9777;-76
2023/12/28 07:15:50;;;;;;;;;2.00;2.00;;;;;;;;5067817;28;9766;-78
2023/12/28 07:18:17;;;;;;;;;3.25;3.25;;;;;;;;5069933;28;9661;-75
2023/12/28 07:20:44;;;;;;;;;3.25;3.25;;;;;;;;5067704;28;9702;-78
2023/12/28 07:23:11;;;;;;;;;6.00;4.00;;;;;;;;5070151;28;9718;-77
2023/12/28 07:25:39;;;;;;;;;4.00;4.00;;;;;;;;5064724;28;9677;-77
2023/12/28 07:28:06;;;;;;;;;5.75;2.75;;;;;;;;5062435;28;9831;-74
2023/12/28 07:30:33;;;;;;;;;3.50;3.00;;;;;;;;5070975;28;9551;-77
2023/12/28 07:33:02;;;;;;;;;3.00;3.00;;;;;;;;5069699;28;9620;-76
2023/12/28 07:35:29;;;;;;;;;3.50;2.50;;;;;;;;5069502;28;9690;-77
2023/12/28 07:37:56;;;;;;;;;2.50;2.50;;;;;;;;5069668;28;9671;-76
2023/12/28 07:40:23;;;;;;;;;2.00;2.00;;;;;;;;5069407;28;9618;-76
2023/12/28 07:42:51;;;;;;;;;4.00;3.00;;;;;;;;5069470;28;9608;-73
2023/12/28 07:45:22;;;;;;;;;6.75;4.00;;;;;;;;5070363;28;9633;-76
2023/12/28 07:47:50;;;;;;;;;3.75;3.75;;;;;;;;5071271;28;9752;-76
2023/12/28 07:50:19;;;;;;;;;3.00;3.00;;;;;;;;5073569;28;9745;-74
2023/12/28 07:52:49;;;;;;;;;2.75;2.75;;;;;;;;5073652;28;9759;-76
2023/12/28 07:55:16;;;;;;;;;3.00;3.00;;;;;;;;5074120;28;9779;-76
2023/12/28 07:57:44;;;;;;;;;6.75;3.50;;;;;;;;5073470;28;9639;-73
2023/12/28 08:00:12;;;;;;;;;2.00;2.00;;;;;;;;5073190;28;9762;-73
2023/12/28 08:02:42;;;;;;;;;3.75;3.00;;;;;;;;5063019;28;9604;-77
2023/12/28 08:05:10;;;;;;;;;6.25;3.25;;;;;;;;5069404;28;9846;-77
2023/12/28 08:07:38;;;;;;;;;2.75;2.75;;;;;;;;5062530;28;9859;-77
2023/12/28 08:10:09;;;;;;;;;3.00;3.00;;;;;;;;5057880;28;9711;-76
2023/12/28 08:12:39;;;;;;;;;4.00;4.00;;;;;;;;5071527;28;9617;-76
2023/12/28 08:15:07;;;;;;;;;2.50;2.50;;;;;;;;5070434;28;9702;-76
2023/12/28 08:17:34;;;;;;;;;2.25;2.25;;;;;;;;5068067;28;9645;-76
2023/12/28 08:20:02;;;;;;;;;6.00;4.00;;;;;;;;5062703;28;10033;-77
2023/12/28 08:22:31;;;;;;;;;6.00;4.00;;;;;;;;5067389;28;9557;-76
2023/12/28 08:24:59;;;;;;;;;8.25;4.50;;;;;;;;5056701;28;9692;-77
2023/12/28 08:27:26;;;;;;;;;6.00;5.75;;;;;;;;5064692;28;9775;-74
2023/12/28 08:29:54;;;;;;;;;7.00;5.25;;;;;;;;5068335;28;9750;-74
2023/12/28 08:32:21;;;;;;;;;7.00;4.75;;;;;;;;5068202;28;9721;-77
2023/12/28 08:34:49;;;;;;;;;6.50;5.00;;;;;;;;5062855;28;9853;-75
2023/12/28 08:37:16;;;;;;;;;6.00;6.00;;;;;;;;5071470;28;9882;-73
2023/12/28 08:39:43;;;;;;;;;7.00;5.00;;;;;;;;5066001;28;10629;-73
2023/12/28 08:42:12;;;;;;;;;4.00;4.00;;;;;;;;5069007;28;9949;-74
2023/12/28 08:44:39;;;;;;;;;5.75;5.75;;;;;;;;5068104;28;9688;-74
2023/12/28 08:47:07;;;;;;;;;8.50;6.25;;;;;;;;5063561;28;9779;-75
2023/12/28 08:49:34;;;;;;;;;4.25;2.50;;;;;;;;5064378;28;9890;-75
2023/12/28 08:52:01;;;;;;;;;6.00;4.00;;;;;;;;5063184;28;9712;-76
2023/12/28 08:54:28;;;;;;;;;8.00;8.00;;;;;;;;5069109;28;9699;-76
2023/12/28 08:56:55;;;;;;;;;4.50;4.50;;;;;;;;5072776;28;9784;-72
2023/12/28 08:59:24;;;;;;;;;5.00;4.00;;;;;;;;5070168;28;9530;-75
2023/12/28 09:01:56;;;;;;;;;2.00;2.00;;;;;;;;5070146;28;9486;-76
2023/12/28 09:04:23;;;;;;;;;4.75;3.00;;;;;;;;5061256;28;9586;-73
2023/12/28 09:06:50;;;;;;;;;5.75;3.75;;;;;;;;5060672;28;9705;-75
2023/12/28 09:09:18;;;;;;;;;4.00;4.00;;;;;;;;5059592;28;9566;-77
2023/12/28 09:11:45;;;;;;;;;3.00;3.00;;;;;;;;5067837;28;9533;-77
2023/12/28 09:14:14;;;;;;;;;3.75;3.75;;;;;;;;5066143;28;9597;-77
2023/12/28 09:16:44;;;;;;;;;5.75;3.75;;;;;;;;5067970;28;9450;-78
2023/12/28 09:19:12;;;;;;;;;5.50;3.25;;;;;;;;5067621;28;9489;-76
2023/12/28 09:21:39;;;;;;;;;3.00;3.00;;;;;;;;5061664;28;9397;-77
2023/12/28 09:24:07;;;;;;;;;7.25;5.50;;;;;;;;5066581;28;9517;-72
2023/12/28 09:26:34;;;;;;;;;10.00;7.75;;;;;;;;5055399;28;9535;-75
2023/12/28 09:29:01;;;;;;;;;11.75;9.00;;;;;;;;5068394;28;9764;-76
2023/12/28 09:31:28;;;;;;;;;10.00;7.25;;;;;;;;5065998;28;9549;-75
2023/12/28 09:33:57;;;;;;;;;4.00;4.00;;;;;;;;5069991;28;9613;-77
2023/12/28 09:36:24;;;;;;;;;5.33;5.33;;;;;;;;5071177;28;9472;-74
2023/12/28 09:38:52;;;;;;;;;4.67;4.67;;;;;;;;5068333;28;9331;-77
2023/12/28 09:41:25;;;;;;;;;4.00;4.00;;;;;;;;5062643;28;9273;-74
2023/12/28 09:43:55;;;;;;;;;4.00;2.00;;;;;;;;5068629;28;9396;-75
2023/12/28 09:46:22;;;;;;;;;4.67;3.00;;;;;;;;5074835;28;9376;-75
2023/12/28 09:48:49;;;;;;;;;4.00;4.00;;;;;;;;5074292;28;9402;-74
2023/12/28 09:51:20;;;;;;;;;3.00;3.00;;;;;;;;5072530;28;9401;-74
2023/12/28 09:53:48;;;;;;;;;4.33;3.00;;;;;;;;5072065;28;9303;-72
2023/12/28 09:56:24;;;;;;;;;3.33;3.33;;;;;;;;5070991;28;9236;-75
2023/12/28 09:58:52;;;;;;;;;3.67;3.33;;;;;;;;5072679;28;9316;-72
2023/12/28 10:01:20;;;;;;;;;4.00;2.00;;;;;;;;5069830;28;9252;-74
2023/12/28 10:03:47;;;;;;;;;5.33;3.00;;;;;;;;5071176;28;9109;-75
2023/12/28 10:06:16;;;;;;;;;0.00;0.00;;;;;;;;5070393;28;9103;-73
2023/12/28 10:08:48;;;;;;;;;3.00;3.00;;;;;;;;5071274;28;8930;-75
2023/12/28 10:11:20;;;;;;;;;2.67;2.67;;;;;;;;5059842;28;9077;-74
2023/12/28 10:13:49;;;;;;;;;4.00;4.00;;;;;;;;5066705;28;8998;-74
2023/12/28 10:16:17;;;;;;;;;6.00;4.67;;;;;;;;5071174;28;9762;-73
2023/12/28 10:18:46;;;;;;;;;3.33;3.33;;;;;;;;5072617;28;9107;-74
2023/12/28 10:21:13;;;;;;;;;4.00;3.00;;;;;;;;5073954;28;9069;-74
2023/12/28 10:23:41;;;;;;;;;3.00;3.00;;;;;;;;5073087;28;9879;-75
2023/12/28 10:26:10;;;;;;;;;4.00;2.67;;;;;;;;5071377;28;9077;-74
2023/12/28 10:28:38;;;;;;;;;5.00;3.00;;;;;;;;5070563;28;8949;-75
2023/12/28 10:31:05;;;;;;;;;4.00;4.00;;;;;;;;5069549;28;9722;-75
2023/12/28 10:33:35;;;;;;;;;3.33;3.33;;;;;;;;5069681;28;9454;-76
2023/12/28 10:36:05;;;;;;;;;4.00;3.00;;;;;;;;5077727;28;9004;-75
2023/12/28 10:38:37;;;;;;;;;4.25;2.75;;;;;;;;5078791;28;8928;-75
2023/12/28 10:41:06;;;;;;;;;3.00;3.00;;;;;;;;5067610;28;8869;-78
2023/12/28 10:43:45;;;;;;;;;4.00;2.75;;;;;;;;5067491;28;8846;-80
2023/12/28 10:46:17;;;;;;;;;2.75;1.25;;;;;;;;5068936;28;8850;-75
2023/12/28 10:48:46;;;;;;;;;2.25;2.25;;;;;;;;5060470;28;8850;-75
2023/12/28 10:51:17;;;;;;;;;3.75;3.75;;;;;;;;5070195;28;8855;-78
2023/12/28 10:53:52;;;;;;;;;3.00;2.50;;;;;;;;5074784;28;8943;-77
2023/12/28 10:56:24;;;;;;;;;2.50;2.25;;;;;;;;5068993;28;8952;-78
2023/12/28 10:59:04;;;;;;;;;4.50;4.50;;;;;;;;5067556;28;8862;-76
2023/12/28 11:01:33;;;;;;;;;4.25;3.00;;;;;;;;5066594;28;8805;-75
2023/12/28 11:04:09;;;;;;;;;1.25;1.25;;;;;;;;5069543;28;8949;-77
2023/12/28 11:06:37;;;;;;;;;4.00;2.00;;;;;;;;5073375;28;8866;-75
2023/12/28 11:09:05;;;;;;;;;1.00;1.00;;;;;;;;5067683;28;9668;-76
2023/12/28 11:11:33;;;;;;;;;0.75;0.75;;;;;;;;5050583;28;8877;-75
2023/12/28 11:14:02;;;;;;;;;1.00;1.00;;;;;;;;5065890;28;8846;-75
2023/12/28 11:16:30;;;;;;;;;1.00;1.00;;;;;;;;5061393;28;8931;-74
2023/12/28 11:18:58;;;;;;;;;1.75;1.75;;;;;;;;5072169;28;9798;-74
2023/12/28 11:21:26;;;;;;;;;2.00;2.00;;;;;;;;5074837;28;8867;-75
2023/12/28 11:23:53;;;;;;;;;3.50;2.00;;;;;;;;5073713;28;8854;-75
2023/12/28 11:26:21;;;;;;;;;1.00;1.00;;;;;;;;5064582;28;8980;-74
2023/12/28 11:28:52;;;;;;;;;3.00;1.25;;;;;;;;5068075;28;8981;-76
2023/12/28 11:31:21;;;;;;;;;1.25;1.25;;;;;;;;5063245;28;8809;-73
2023/12/28 11:33:53;;;;;;;;;1.75;1.00;;;;;;;;5062041;28;8853;-73
2023/12/28 11:36:25;;;;;;;;;2.75;2.00;;;;;;;;5062480;28;8954;-74
2023/12/28 11:38:55;;;;;;;;;4.75;1.00;;;;;;;;5066880;28;8849;-74
2023/12/28 11:41:22;;;;;;;;;1.75;1.75;;;;;;;;5055700;28;8852;-75
2023/12/28 11:43:54;;;;;;;;;1.75;1.00;;;;;;;;5066276;28;8841;-74
2023/12/28 11:46:23;;;;;;;;;1.00;1.00;;;;;;;;5067105;28;8862;-75
2023/12/28 11:48:51;;;;;;;;;1.50;1.50;;;;;;;;5070437;28;8956;-74
2023/12/28 11:51:18;;;;;;;;;1.00;1.00;;;;;;;;5068953;28;8890;-73
2023/12/28 11:53:47;;;;;;;;;2.00;0.75;;;;;;;;5069248;28;8904;-75
2023/12/28 11:56:17;;;;;;;;;1.75;1.75;;;;;;;;5069065;28;8869;-75
2023/12/28 11:58:46;;;;;;;;;1.00;1.00;;;;;;;;5060743;28;8928;-73
2023/12/28 12:01:17;;;;;;;;;2.25;1.00;;;;;;;;5068983;28;8823;-74
2023/12/28 12:03:45;;;;;;;;;2.75;1.50;;;;;;;;5063344;28;8864;-73
2023/12/28 12:06:13;;;;;;;;;3.25;1.00;;;;;;;;5072349;28;9736;-74
2023/12/28 12:08:40;;;;;;;;;2.75;2.00;;;;;;;;5071638;28;8869;-73
2023/12/28 12:11:08;;;;;;;;;2.00;2.00;;;;;;;;5070448;28;8842;-72
2023/12/28 12:13:36;;;;;;;;;0.00;0.00;;;;;;;;5069160;28;8873;-73
2023/12/28 12:16:06;;;;;;;;;1.00;1.00;;;;;;;;5065217;28;8839;-74
2023/12/28 12:18:34;;;;;;;;;1.00;1.00;;;;;;;;5059693;28;8858;-74
2023/12/28 12:21:02;;;;;;;;;0.00;0.00;;;;;;;;5068760;28;8835;-73
2023/12/28 12:23:30;;;;;;;;;2.75;1.75;;;;;;;;5068785;28;8842;-74
2023/12/28 12:25:59;;;;;;;;;2.50;1.00;;;;;;;;5051974;28;8849;-73
2023/12/28 12:28:26;;;;;;;;;2.50;0.75;;;;;;;;5064248;28;8939;-72
2023/12/28 12:30:56;;;;;;;;;0.75;0.75;;;;;;;;5068489;28;8806;-73
2023/12/28 12:33:25;;;;;;;;;4.50;3.50;;;;;;;;5068149;28;8905;-75
2023/12/28 12:35:53;;;;;;;;;1.50;1.25;;;;;;;;5068789;28;8847;-75
2023/12/28 12:38:22;;;;;;;;;1.00;1.00;;;;;;;;5064814;28;8890;-74
2023/12/28 12:40:52;;;;;;;;;1.00;1.00;;;;;;;;5068574;28;8862;-74
2023/12/28 12:43:20;;;;;;;;;0.00;0.00;;;;;;;;5066739;28;8855;-75
2023/12/28 12:45:47;;;;;;;;;1.50;1.50;;;;;;;;5068771;28;8850;-74
2023/12/28 12:48:14;;;;;;;;;0.00;0.00;;;;;;;;5068591;28;8923;-74
2023/12/28 12:50:41;;;;;;;;;3.00;3.00;;;;;;;;5068877;28;8854;-75
2023/12/28 12:53:09;;;;;;;;;2.75;1.00;;;;;;;;5067900;28;9176;-75
2023/12/28 12:55:41;;;;;;;;;1.50;1.00;;;;;;;;5068205;28;8866;-75
2023/12/28 12:58:09;;;;;;;;;1.00;1.00;;;;;;;;5068534;28;8866;-73
2023/12/28 13:00:36;;;;;;;;;7.00;2.00;;;;;;;;5067471;28;8770;-73
2023/12/28 13:03:03;;;;;;;;;4.25;2.50;;;;;;;;5057783;28;8831;-73
2023/12/28 13:05:32;;;;;;;;;2.00;2.00;;;;;;;;5067603;28;8835;-79
2023/12/28 13:07:59;;;;;;;;;1.00;1.00;;;;;;;;5058322;28;8877;-75
2023/12/28 13:10:29;;;;;;;;;4.25;3.00;;;;;;;;5056921;28;8853;-75
2023/12/28 13:12:58;;;;;;;;;4.75;2.00;;;;;;;;5068464;28;8839;-75
2023/12/28 13:15:25;;;;;;;;;1.25;1.25;;;;;;;;5070465;28;8868;-75
2023/12/28 13:17:55;;;;;;;;;1.00;1.00;;;;;;;;5071831;28;8855;-74
2023/12/28 13:20:25;;;;;;;;;0.00;0.00;;;;;;;;5065644;28;8855;-74
2023/12/28 13:22:54;;;;;;;;;1.00;1.00;;;;;;;;5069554;28;8977;-76
2023/12/28 13:25:21;;;;;;;;;1.25;1.00;;;;;;;;5067233;28;8849;-76
2023/12/28 13:27:49;;;;;;;;;2.00;0.75;;;;;;;;5059263;28;8904;-75
2023/12/28 13:30:17;;;;;;;;;1.25;1.00;;;;;;;;5066408;28;8859;-76
2023/12/28 13:32:45;;;;;;;;;2.00;2.00;;;;;;;;5068630;28;8982;-74
2023/12/28 13:35:12;;;;;;;;;3.25;2.25;;;;;;;;5067743;28;8881;-75
2023/12/28 13:37:39;;;;;;;;;2.00;2.00;;;;;;;;5067614;28;8975;-76
2023/12/28 13:40:08;;;;;;;;;1.00;1.00;;;;;;;;5067533;28;8955;-76
2023/12/28 13:42:36;;;;;;;;;2.00;1.00;;;;;;;;5068134;28;8914;-76
2023/12/28 13:45:04;;;;;;;;;1.50;1.50;;;;;;;;5067203;28;8953;-76
2023/12/28 13:47:31;;;;;;;;;2.50;1.75;;;;;;;;5068522;28;9715;-76
2023/12/28 13:50:06;;;;;;;;;3.25;2.00;;;;;;;;5068095;28;9317;-80
2023/12/28 13:52:33;;;;;;;;;0.00;0.00;;;;;;;;5071710;28;9648;-74
2023/12/28 13:55:03;;;;;;;;;1.50;1.50;;;;;;;;5069055;28;9705;-75
2023/12/28 13:57:30;;;;;;;;;1.00;1.00;;;;;;;;5070234;28;8866;-74
2023/12/28 14:00:00;;;;;;;;;1.50;1.50;;;;;;;;5066599;28;8873;-76
2023/12/28 14:02:27;;;;;;;;;2.00;2.00;;;;;;;;5064048;28;8806;-76
2023/12/28 14:04:56;;;;;;;;;2.50;2.00;;;;;;;;5057590;28;8969;-74
2023/12/28 14:07:24;;;;;;;;;1.00;1.00;;;;;;;;5067428;28;8881;-77
2023/12/28 14:09:51;;;;;;;;;1.00;1.00;;;;;;;;5067778;28;8886;-75
2023/12/28 14:12:18;;;;;;;;;2.00;2.00;;;;;;;;5067302;28;8854;-76
2023/12/28 14:15:08;;;;;;;;;1.50;1.00;;;;;;;;5067525;28;9717;-76
2023/12/28 14:17:39;;;;;;;;;4.25;2.00;;;;;;;;5066711;28;8843;-75
2023/12/28 14:20:11;;;;;;;;;3.75;3.00;;;;;;;;5066160;28;8924;-77
2023/12/28 14:22:39;;;;;;;;;5.00;3.00;;;;;;;;5059037;28;8854;-75
2023/12/28 14:25:07;;;;;;;;;4.00;3.00;;;;;;;;5071240;28;8866;-76
2023/12/28 14:27:35;;;;;;;;;3.00;2.50;;;;;;;;5060651;28;8859;-75
2023/12/28 14:30:03;;;;;;;;;4.25;3.50;;;;;;;;5070707;28;8882;-75
2023/12/28 14:32:31;;;;;;;;;2.50;2.00;;;;;;;;5070320;28;8807;-76
2023/12/28 14:34:58;;;;;;;;;2.00;2.00;;;;;;;;5067622;28;8830;-76
2023/12/28 14:37:27;;;;;;;;;2.50;2.50;;;;;;;;5069164;28;9686;-74
2023/12/28 14:39:55;;;;;;;;;2.00;2.00;;;;;;;;5070568;28;8878;-74
2023/12/28 14:42:24;;;;;;;;;1.00;1.00;;;;;;;;5069593;28;8855;-75
2023/12/28 14:44:52;;;;;;;;;2.25;2.00;;;;;;;;5070257;28;8901;-74
2023/12/28 14:47:19;;;;;;;;;2.00;2.00;;;;;;;;5069349;28;8890;-76
2023/12/28 14:49:46;;;;;;;;;1.75;1.75;;;;;;;;5071309;28;8858;-75
2023/12/28 14:52:13;;;;;;;;;2.00;2.00;;;;;;;;5073108;28;8973;-75
2023/12/28 14:54:43;;;;;;;;;2.25;2.25;;;;;;;;5072916;28;8839;-75
2023/12/28 14:57:11;;;;;;;;;1.75;1.75;;;;;;;;5073542;28;8925;-73
2023/12/28 14:59:39;;;;;;;;;3.00;3.00;;;;;;;;5067241;28;8973;-74
2023/12/28 15:02:06;;;;;;;;;4.00;2.25;;;;;;;;5060461;28;8806;-75